createdAt,value
2017-05-27T00:00:39.172Z,12
2017-05-27T00:01:51.604Z,12
2017-05-27T00:03:04.530Z,12
2017-05-27T00:04:16.471Z,12
2017-05-27T00:05:28.904Z,12
2017-05-27T00:06:41.334Z,12
2017-05-27T00:07:53.768Z,4
2017-05-27T00:09:05.909Z,4
2017-05-27T00:10:18.342Z,12
2017-05-27T00:11:30.283Z,12
2017-05-27T00:12:43.202Z,12
2017-05-27T00:13:55.851Z,12
2017-05-27T00:15:08.281Z,12
2017-05-27T00:16:20.721Z,12
2017-05-27T00:17:33.643Z,12
2017-05-27T00:18:46.573Z,12
2017-05-27T00:19:59.494Z,4
2017-05-27T00:21:12.414Z,4
2017-05-27T00:22:25.338Z,4
2017-05-27T00:23:38.274Z,16
2017-05-27T00:24:50.709Z,16
2017-05-27T00:26:03.151Z,12
2017-05-27T00:27:15.586Z,4
2017-05-27T00:28:28.530Z,4
2017-05-27T00:29:40.468Z,12
2017-05-27T00:30:53.642Z,12
2017-05-27T00:32:06.128Z,12
2017-05-27T00:33:19.133Z,12
2017-05-27T00:34:31.649Z,12
2017-05-27T00:35:44.654Z,12
2017-05-27T00:36:57.655Z,16
2017-05-27T00:38:10.164Z,12
2017-05-27T00:39:22.696Z,4
2017-05-27T00:40:35.238Z,16
2017-05-27T00:41:47.762Z,12
2017-05-27T00:43:00.772Z,12
2017-05-27T00:44:13.283Z,12
2017-05-27T00:45:25.298Z,12
2017-05-27T00:46:38.004Z,12
2017-05-27T00:47:51.006Z,4
2017-05-27T00:49:04.023Z,12
2017-05-27T00:50:16.531Z,12
2017-05-27T00:51:28.045Z,12
2017-05-27T00:52:41.250Z,12
2017-05-27T00:53:53.760Z,12
2017-05-27T00:55:06.763Z,12
2017-05-27T00:56:18.780Z,12
2017-05-27T00:57:31.288Z,12
2017-05-27T00:58:44.290Z,12
2017-05-27T00:59:56.803Z,12
2017-05-27T01:01:09.801Z,12
2017-05-27T01:02:21.814Z,12
2017-05-27T01:03:34.821Z,12
2017-05-27T01:04:47.825Z,4
2017-05-27T01:05:59.834Z,12
2017-05-27T01:07:12.338Z,12
2017-05-27T01:08:25.586Z,12
2017-05-27T01:09:38.153Z,12
2017-05-27T01:10:51.213Z,12
2017-05-27T01:12:04.274Z,12
2017-05-27T01:13:15.837Z,12
2017-05-27T01:14:29.110Z,12
2017-05-27T01:15:41.669Z,12
2017-05-27T01:16:54.729Z,12
2017-05-27T01:18:07.863Z,12
2017-05-27T01:19:20.626Z,12
2017-05-27T01:20:33.693Z,12
2017-05-27T01:21:46.755Z,8
2017-05-27T01:22:59.813Z,12
2017-05-27T01:24:11.858Z,12
2017-05-27T01:25:23.904Z,12
2017-05-27T01:26:36.447Z,12
2017-05-27T01:27:48.992Z,12
2017-05-27T01:29:01.537Z,4
2017-05-27T01:30:14.284Z,16
2017-05-27T01:31:26.834Z,12
2017-05-27T01:32:39.884Z,12
2017-05-27T01:33:52.935Z,12
2017-05-27T01:35:05.728Z,8
2017-05-27T01:36:18.335Z,4
2017-05-27T01:37:31.380Z,12
2017-05-27T01:38:44.430Z,12
2017-05-27T01:39:56.987Z,12
2017-05-27T01:41:09.736Z,12
2017-05-27T01:42:22.285Z,12
2017-05-27T01:43:34.832Z,12
2017-05-27T01:44:47.293Z,12
2017-05-27T01:46:00.196Z,12
2017-05-27T01:47:12.617Z,12
2017-05-27T01:48:25.534Z,12
2017-05-27T01:49:37.949Z,12
2017-05-27T01:50:50.851Z,12
2017-05-27T01:52:03.753Z,12
2017-05-27T01:53:15.685Z,12
2017-05-27T01:54:28.591Z,12
2017-05-27T01:55:41.496Z,12
2017-05-27T01:56:54.396Z,12
2017-05-27T01:58:06.821Z,12
2017-05-27T01:59:18.744Z,12
2017-05-27T02:00:31.158Z,12
2017-05-27T02:01:43.574Z,12
2017-05-27T02:02:56.481Z,16
2017-05-27T02:04:08.910Z,12
2017-05-27T02:05:21.809Z,12
2017-05-27T02:06:34.728Z,12
2017-05-27T02:07:47.636Z,12
2017-05-27T02:09:00.744Z,12
2017-05-27T02:10:12.671Z,12
2017-05-27T02:11:24.589Z,12
2017-05-27T02:12:37.492Z,16
2017-05-27T02:13:50.594Z,12
2017-05-27T02:15:03.010Z,12
2017-05-27T02:16:15.913Z,12
2017-05-27T02:17:28.821Z,12
2017-05-27T02:18:41.731Z,12
2017-05-27T02:19:54.634Z,12
2017-05-27T02:21:07.537Z,12
2017-05-27T02:22:19.956Z,12
2017-05-27T02:23:32.883Z,12
2017-05-27T02:24:46.004Z,12
2017-05-27T02:25:58.905Z,12
2017-05-27T02:27:11.807Z,12
2017-05-27T02:28:23.727Z,12
2017-05-27T02:29:36.629Z,12
2017-05-27T02:30:49.240Z,12
2017-05-27T02:32:02.254Z,12
2017-05-27T02:33:14.667Z,4
2017-05-27T02:34:27.081Z,4
2017-05-27T02:35:40.194Z,12
2017-05-27T02:36:52.612Z,12
2017-05-27T02:38:05.512Z,4
2017-05-27T02:39:18.413Z,4
2017-05-27T02:40:30.337Z,4
2017-05-27T02:41:43.450Z,12
2017-05-27T02:42:56.356Z,16
2017-05-27T02:44:09.266Z,12
2017-05-27T02:45:21.685Z,12
2017-05-27T02:46:34.296Z,12
2017-05-27T02:47:47.205Z,12
2017-05-27T02:48:59.617Z,12
2017-05-27T02:50:12.522Z,12
2017-05-27T02:51:24.442Z,12
2017-05-27T02:52:37.026Z,12
2017-05-27T02:53:49.325Z,12
2017-05-27T02:55:00.664Z,12
2017-05-27T02:56:12.969Z,12
2017-05-27T02:57:25.750Z,12
2017-05-27T02:58:38.536Z,12
2017-05-27T02:59:51.319Z,4
2017-05-27T03:01:03.622Z,4
2017-05-27T03:02:15.927Z,16
2017-05-27T03:03:28.917Z,16
2017-05-27T03:04:40.740Z,16
2017-05-27T03:05:53.525Z,16
2017-05-27T03:07:06.306Z,4
2017-05-27T03:08:18.608Z,4
2017-05-27T03:09:30.910Z,4
2017-05-27T03:10:43.218Z,16
2017-05-27T03:11:56.001Z,12
2017-05-27T03:13:08.787Z,12
2017-05-27T03:14:21.770Z,12
2017-05-27T03:15:34.073Z,12
2017-05-27T03:16:46.375Z,12
2017-05-27T03:17:59.166Z,12
2017-05-27T03:19:12.156Z,12
2017-05-27T03:20:24.952Z,12
2017-05-27T03:21:37.735Z,12
2017-05-27T03:22:50.523Z,12
2017-05-27T03:24:02.397Z,12
2017-05-27T03:25:14.904Z,12
2017-05-27T03:26:27.691Z,12
2017-05-27T03:27:40.480Z,4
2017-05-27T03:28:52.785Z,4
2017-05-27T03:30:05.773Z,12
2017-05-27T03:31:17.109Z,12
2017-05-27T03:32:29.018Z,12
2017-05-27T03:33:41.943Z,12
2017-05-27T03:34:54.381Z,12
2017-05-27T03:36:06.326Z,12
2017-05-27T03:37:19.253Z,12
2017-05-27T03:38:31.786Z,12
2017-05-27T03:39:44.848Z,4
2017-05-27T03:40:57.918Z,16
2017-05-27T03:42:10.681Z,12
2017-05-27T03:43:22.743Z,12
2017-05-27T03:44:34.813Z,12
2017-05-27T03:45:47.873Z,12
2017-05-27T03:47:00.994Z,12
2017-05-27T03:48:12.559Z,4
2017-05-27T03:49:25.126Z,12
2017-05-27T03:50:37.690Z,12
2017-05-27T03:51:50.749Z,12
2017-05-27T03:53:04.015Z,12
2017-05-27T03:54:17.138Z,12
2017-05-27T03:55:29.698Z,8
2017-05-27T03:56:42.268Z,4
2017-05-27T03:57:54.829Z,4
2017-05-27T03:59:06.897Z,12
2017-05-27T04:00:19.463Z,12
2017-05-27T04:01:32.574Z,12
2017-05-27T04:02:45.635Z,8
2017-05-27T04:03:58.707Z,12
2017-05-27T04:05:11.270Z,12
2017-05-27T04:06:23.834Z,12
2017-05-27T04:07:36.305Z,4
2017-05-27T04:08:49.427Z,4
2017-05-27T04:10:02.349Z,4
2017-05-27T04:11:15.273Z,4
2017-05-27T04:12:27.212Z,16
2017-05-27T04:13:39.645Z,12
2017-05-27T04:14:52.765Z,12
2017-05-27T04:16:05.687Z,4
2017-05-27T04:17:18.613Z,4
2017-05-27T04:18:31.061Z,4
2017-05-27T04:19:43.487Z,16
2017-05-27T04:20:56.406Z,12
2017-05-27T04:22:08.342Z,4
2017-05-27T04:23:20.754Z,4
2017-05-27T04:24:32.194Z,12
2017-05-27T04:25:45.301Z,12
2017-05-27T04:26:58.203Z,12
2017-05-27T04:28:10.620Z,12
2017-05-27T04:29:23.527Z,16
2017-05-27T04:30:35.940Z,12
2017-05-27T04:31:48.847Z,4
2017-05-27T04:33:01.266Z,12
2017-05-27T04:34:14.171Z,12
2017-05-27T04:35:26.581Z,12
2017-05-27T04:36:39.479Z,12
2017-05-27T04:37:52.380Z,12
2017-05-27T04:39:04.305Z,12
2017-05-27T04:40:16.225Z,12
2017-05-27T04:41:28.690Z,4
2017-05-27T04:42:41.111Z,16
2017-05-27T04:43:54.019Z,12
2017-05-27T04:45:06.925Z,12
2017-05-27T04:46:18.846Z,12
2017-05-27T04:47:31.258Z,12
2017-05-27T04:48:44.365Z,12
2017-05-27T04:49:56.785Z,12
2017-05-27T04:51:09.683Z,12
2017-05-27T04:52:22.585Z,12
2017-05-27T04:53:34.021Z,12
2017-05-27T04:54:46.921Z,12
2017-05-27T04:55:59.826Z,12
2017-05-27T04:57:12.729Z,12
2017-05-27T04:58:25.145Z,12
2017-05-27T04:59:37.769Z,12
2017-05-27T05:00:50.672Z,12
2017-05-27T05:02:03.087Z,12
2017-05-27T05:03:16.007Z,12
2017-05-27T05:04:28.426Z,12
2017-05-27T05:05:41.324Z,12
2017-05-27T05:06:54.231Z,12
2017-05-27T05:08:06.564Z,12
2017-05-27T05:09:18.868Z,12
2017-05-27T05:10:31.166Z,12
2017-05-27T05:11:43.949Z,12
2017-05-27T05:12:56.730Z,12
2017-05-27T05:14:09.514Z,12
2017-05-27T05:15:22.013Z,12
2017-05-27T05:16:33.361Z,12
2017-05-27T05:17:46.155Z,12
2017-05-27T05:18:57.977Z,12
2017-05-27T05:20:10.285Z,12
2017-05-27T05:21:23.269Z,12
2017-05-27T05:22:35.086Z,12
2017-05-27T05:23:47.389Z,12
2017-05-27T05:25:00.175Z,12
2017-05-27T05:26:11.516Z,12
2017-05-27T05:27:24.497Z,12
2017-05-27T05:28:35.838Z,12
2017-05-27T05:29:48.625Z,12
2017-05-27T05:31:00.925Z,12
2017-05-27T05:32:13.711Z,12
2017-05-27T05:33:26.213Z,12
2017-05-27T05:34:39.001Z,12
2017-05-27T05:35:51.302Z,12
2017-05-27T05:37:03.607Z,12
2017-05-27T05:38:15.428Z,12
2017-05-27T05:39:27.252Z,12
2017-05-27T05:40:39.558Z,12
2017-05-27T05:41:52.350Z,12
2017-05-27T05:43:04.652Z,12
2017-05-27T05:44:17.641Z,12
2017-05-27T05:45:29.458Z,12
2017-05-27T05:46:41.278Z,12
2017-05-27T05:47:54.059Z,12
2017-05-27T05:49:05.879Z,12
2017-05-27T05:50:18.177Z,12
2017-05-27T05:51:29.995Z,12
2017-05-27T05:52:41.897Z,12
2017-05-27T05:53:54.823Z,12
2017-05-27T05:55:07.264Z,12
2017-05-27T05:56:19.691Z,12
2017-05-27T05:57:32.121Z,12
2017-05-27T05:58:45.044Z,12
2017-05-27T05:59:57.975Z,12
2017-05-27T06:01:10.404Z,12
2017-05-27T06:02:23.366Z,8
2017-05-27T06:03:36.291Z,12
2017-05-27T06:04:49.221Z,12
2017-05-27T06:06:01.654Z,12
2017-05-27T06:07:13.597Z,12
2017-05-27T06:08:26.022Z,12
2017-05-27T06:09:38.948Z,12
2017-05-27T06:10:51.867Z,12
2017-05-27T06:12:03.516Z,12
2017-05-27T06:13:15.949Z,12
2017-05-27T06:14:28.394Z,12
2017-05-27T06:15:40.830Z,12
2017-05-27T06:16:53.748Z,12
2017-05-27T06:18:06.179Z,12
2017-05-27T06:19:19.108Z,12
2017-05-27T06:20:31.050Z,12
2017-05-27T06:21:43.478Z,12
2017-05-27T06:22:56.598Z,12
2017-05-27T06:24:09.031Z,12
2017-05-27T06:25:21.460Z,12
2017-05-27T06:26:34.382Z,12
2017-05-27T06:27:47.503Z,12
2017-05-27T06:28:59.932Z,12
2017-05-27T06:30:11.377Z,12
2017-05-27T06:31:24.308Z,12
2017-05-27T06:32:37.232Z,12
2017-05-27T06:33:49.863Z,12
2017-05-27T06:35:02.783Z,12
2017-05-27T06:36:15.708Z,12
2017-05-27T06:37:27.647Z,12
2017-05-27T06:38:40.773Z,12
2017-05-27T06:39:53.693Z,12
2017-05-27T06:41:06.612Z,12
2017-05-27T06:42:19.044Z,12
2017-05-27T06:43:31.982Z,12
2017-05-27T06:44:44.904Z,12
2017-05-27T06:45:57.336Z,12
2017-05-27T06:47:09.272Z,12
2017-05-27T06:48:22.203Z,12
2017-05-27T06:49:34.146Z,12
2017-05-27T06:50:47.112Z,12
2017-05-27T06:51:59.540Z,12
2017-05-27T06:53:11.974Z,12
2017-05-27T06:54:24.405Z,12
2017-05-27T06:55:37.330Z,12
2017-05-27T06:56:50.257Z,16
2017-05-27T06:58:03.173Z,8
2017-05-27T06:59:15.115Z,4
2017-05-27T07:00:27.259Z,4
2017-05-27T07:01:40.181Z,12
2017-05-27T07:02:52.615Z,16
2017-05-27T07:04:05.045Z,12
2017-05-27T07:05:17.963Z,12
2017-05-27T07:06:30.593Z,12
2017-05-27T07:07:43.021Z,12
2017-05-27T07:08:54.958Z,12
2017-05-27T07:10:07.387Z,12
2017-05-27T07:11:19.830Z,12
2017-05-27T07:12:32.746Z,12
2017-05-27T07:13:45.665Z,12
2017-05-27T07:14:57.597Z,12
2017-05-27T07:16:10.517Z,12
2017-05-27T07:17:23.640Z,12
2017-05-27T07:18:36.071Z,12
2017-05-27T07:19:48.998Z,12
2017-05-27T07:21:00.448Z,12
2017-05-27T07:22:13.568Z,12
2017-05-27T07:23:26.488Z,8
2017-05-27T07:24:39.475Z,12
2017-05-27T07:25:51.912Z,12
2017-05-27T07:27:04.837Z,12
2017-05-27T07:28:16.779Z,12
2017-05-27T07:29:29.703Z,12
2017-05-27T07:30:42.620Z,12
2017-05-27T07:31:55.543Z,12
2017-05-27T07:33:08.661Z,12
2017-05-27T07:34:21.579Z,12
2017-05-27T07:35:34.494Z,12
2017-05-27T07:36:46.926Z,12
2017-05-27T07:37:59.850Z,12
2017-05-27T07:39:12.776Z,12
2017-05-27T07:40:25.703Z,12
2017-05-27T07:41:38.620Z,12
2017-05-27T07:42:51.541Z,12
2017-05-27T07:44:04.661Z,12
2017-05-27T07:45:17.088Z,12
2017-05-27T07:46:30.006Z,12
2017-05-27T07:47:41.946Z,12
2017-05-27T07:48:54.381Z,12
2017-05-27T07:50:07.302Z,12
2017-05-27T07:51:20.225Z,12
2017-05-27T07:52:33.149Z,12
2017-05-27T07:53:45.582Z,12
2017-05-27T07:54:58.703Z,12
2017-05-27T07:56:10.640Z,12
2017-05-27T07:57:23.071Z,12
2017-05-27T07:58:35.994Z,12
2017-05-27T07:59:48.431Z,12
2017-05-27T08:01:01.060Z,12
2017-05-27T08:02:13.491Z,12
2017-05-27T08:03:25.926Z,12
2017-05-27T08:04:38.857Z,12
2017-05-27T08:05:51.977Z,12
2017-05-27T08:07:03.423Z,12
2017-05-27T08:08:15.845Z,12
2017-05-27T08:09:28.748Z,12
2017-05-27T08:10:40.180Z,12
2017-05-27T08:11:53.078Z,12
2017-05-27T08:13:05.493Z,12
2017-05-27T08:14:18.396Z,12
2017-05-27T08:15:31.295Z,12
2017-05-27T08:16:44.200Z,12
2017-05-27T08:17:56.811Z,12
2017-05-27T08:19:09.711Z,12
2017-05-27T08:20:22.620Z,12
2017-05-27T08:21:35.518Z,12
2017-05-27T08:22:48.421Z,12
2017-05-27T08:24:00.838Z,12
2017-05-27T08:25:13.736Z,12
2017-05-27T08:26:26.638Z,12
2017-05-27T08:27:39.536Z,12
2017-05-27T08:28:52.160Z,12
2017-05-27T08:30:05.075Z,12
2017-05-27T08:31:16.504Z,12
2017-05-27T08:32:28.922Z,12
2017-05-27T08:33:41.040Z,12
2017-05-27T08:34:53.452Z,12
2017-05-27T08:36:06.355Z,12
2017-05-27T08:37:19.254Z,12
2017-05-27T08:38:32.211Z,12
2017-05-27T08:39:44.819Z,12
2017-05-27T08:40:57.721Z,12
2017-05-27T08:42:10.126Z,12
2017-05-27T08:43:21.560Z,12
2017-05-27T08:44:34.685Z,12
2017-05-27T08:45:47.099Z,12
2017-05-27T08:46:59.511Z,12
2017-05-27T08:48:12.413Z,12
2017-05-27T08:49:24.822Z,12
2017-05-27T08:50:37.436Z,12
2017-05-27T08:51:50.334Z,12
2017-05-27T08:53:02.667Z,12
2017-05-27T08:54:15.452Z,12
2017-05-27T08:55:27.859Z,8
2017-05-27T08:56:40.639Z,12
2017-05-27T08:57:53.006Z,12
2017-05-27T08:59:05.310Z,12
2017-05-27T09:00:18.095Z,12
2017-05-27T09:01:30.600Z,12
2017-05-27T09:02:42.902Z,12
2017-05-27T09:03:55.682Z,12
2017-05-27T09:05:08.464Z,4
2017-05-27T09:06:21.451Z,16
2017-05-27T09:07:34.234Z,12
2017-05-27T09:08:46.536Z,12
2017-05-27T09:09:59.319Z,12
2017-05-27T09:11:11.620Z,12
2017-05-27T09:12:24.019Z,12
2017-05-27T09:13:36.323Z,12
2017-05-27T09:14:49.113Z,12
2017-05-27T09:16:01.896Z,12
2017-05-27T09:17:14.397Z,12
2017-05-27T09:18:26.701Z,12
2017-05-27T09:19:39.001Z,12
2017-05-27T09:20:50.821Z,12
2017-05-27T09:22:02.640Z,12
2017-05-27T09:23:15.425Z,12
2017-05-27T09:24:28.228Z,12
2017-05-27T09:25:40.529Z,16
2017-05-27T09:26:52.839Z,12
2017-05-27T09:28:04.665Z,12
2017-05-27T09:29:16.687Z,12
2017-05-27T09:30:29.472Z,16
2017-05-27T09:31:41.773Z,16
2017-05-27T09:32:54.553Z,8
2017-05-27T09:34:06.866Z,8
2017-05-27T09:35:19.649Z,8
2017-05-27T09:36:31.948Z,20
2017-05-27T09:37:44.726Z,24
2017-05-27T09:38:57.029Z,12
2017-05-27T09:40:09.530Z,16
2017-05-27T09:41:21.830Z,12
2017-05-27T09:42:34.631Z,12
2017-05-27T09:43:47.416Z,12
2017-05-27T09:45:00.401Z,16
2017-05-27T09:46:11.736Z,20
2017-05-27T09:47:24.517Z,24
2017-05-27T09:48:37.303Z,24
2017-05-27T09:49:50.086Z,28
2017-05-27T09:51:02.586Z,32
2017-05-27T09:52:14.406Z,36
2017-05-27T09:53:27.188Z,40
2017-05-27T09:54:38.533Z,48
2017-05-27T09:55:48.909Z,48
2017-05-27T09:57:00.279Z,56
2017-05-27T09:58:11.135Z,56
2017-05-27T09:59:21.991Z,60
2017-05-27T10:00:32.363Z,60
2017-05-27T10:01:42.944Z,64
2017-05-27T10:02:53.798Z,60
2017-05-27T10:04:04.167Z,64
2017-05-27T10:05:15.023Z,64
2017-05-27T10:06:25.395Z,64
2017-05-27T10:07:35.778Z,64
2017-05-27T10:08:46.657Z,68
2017-05-27T10:09:57.987Z,68
2017-05-27T10:11:10.286Z,68
2017-05-27T10:12:22.645Z,72
2017-05-27T10:13:34.467Z,68
2017-05-27T10:14:47.250Z,72
2017-05-27T10:16:00.035Z,76
2017-05-27T10:17:12.815Z,72
2017-05-27T10:18:24.632Z,88
2017-05-27T10:19:37.615Z,88
2017-05-27T10:20:50.398Z,96
2017-05-27T10:22:03.182Z,100
2017-05-27T10:23:16.063Z,108
2017-05-27T10:24:28.492Z,108
2017-05-27T10:25:41.415Z,112
2017-05-27T10:26:53.846Z,112
2017-05-27T10:28:06.274Z,116
2017-05-27T10:29:18.707Z,124
2017-05-27T10:30:31.192Z,124
2017-05-27T10:31:43.131Z,120
2017-05-27T10:32:55.066Z,120
2017-05-27T10:34:07.506Z,128
2017-05-27T10:35:20.129Z,148
2017-05-27T10:36:33.048Z,160
2017-05-27T10:37:45.964Z,176
2017-05-27T10:38:58.390Z,168
2017-05-27T10:40:10.816Z,164
2017-05-27T10:41:23.733Z,136
2017-05-27T10:42:36.650Z,124
2017-05-27T10:43:48.585Z,120
2017-05-27T10:45:01.504Z,120
2017-05-27T10:46:14.424Z,120
2017-05-27T10:47:26.359Z,116
2017-05-27T10:48:39.281Z,120
2017-05-27T10:49:51.705Z,112
2017-05-27T10:51:04.625Z,112
2017-05-27T10:52:17.248Z,116
2017-05-27T10:53:29.677Z,120
2017-05-27T10:54:42.595Z,104
2017-05-27T10:55:55.022Z,112
2017-05-27T10:57:07.449Z,108
2017-05-27T10:58:18.400Z,120
2017-05-27T10:59:30.826Z,132
2017-05-27T11:00:43.744Z,132
2017-05-27T11:01:56.169Z,124
2017-05-27T11:03:09.348Z,116
2017-05-27T11:04:21.776Z,112
2017-05-27T11:05:34.692Z,108
2017-05-27T11:06:47.614Z,100
2017-05-27T11:08:00.514Z,100
2017-05-27T11:09:12.436Z,104
2017-05-27T11:10:25.335Z,96
2017-05-27T11:11:38.242Z,88
2017-05-27T11:12:51.139Z,92
2017-05-27T11:14:04.040Z,88
2017-05-27T11:15:16.936Z,80
2017-05-27T11:16:29.840Z,88
2017-05-27T11:17:42.744Z,84
2017-05-27T11:18:54.663Z,84
2017-05-27T11:20:07.561Z,76
2017-05-27T11:21:20.466Z,76
2017-05-27T11:22:33.363Z,68
2017-05-27T11:23:45.771Z,64
2017-05-27T11:24:57.685Z,60
2017-05-27T11:26:09.609Z,64
2017-05-27T11:27:22.029Z,76
2017-05-27T11:28:34.955Z,84
2017-05-27T11:29:47.855Z,96
2017-05-27T11:31:00.950Z,92
2017-05-27T11:32:13.849Z,88
2017-05-27T11:33:26.256Z,100
2017-05-27T11:34:38.670Z,112
2017-05-27T11:35:51.080Z,136
2017-05-27T11:37:03.496Z,160
2017-05-27T11:38:15.897Z,180
2017-05-27T11:39:28.354Z,200
2017-05-27T11:40:41.257Z,188
2017-05-27T11:41:54.153Z,164
2017-05-27T11:43:06.560Z,164
2017-05-27T11:44:19.455Z,180
2017-05-27T11:45:31.862Z,200
2017-05-27T11:46:44.469Z,216
2017-05-27T11:47:56.879Z,196
2017-05-27T11:49:09.282Z,196
2017-05-27T11:50:22.188Z,176
2017-05-27T11:51:34.597Z,132
2017-05-27T11:52:47.707Z,108
2017-05-27T11:53:59.643Z,112
2017-05-27T11:55:12.563Z,116
2017-05-27T11:56:24.986Z,124
2017-05-27T11:57:37.615Z,144
2017-05-27T11:58:50.603Z,188
2017-05-27T12:00:03.599Z,188
2017-05-27T12:01:16.108Z,176
2017-05-27T12:02:28.613Z,160
2017-05-27T12:03:40.621Z,132
2017-05-27T12:04:52.635Z,148
2017-05-27T12:06:05.139Z,148
2017-05-27T12:07:16.646Z,148
2017-05-27T12:08:29.650Z,144
2017-05-27T12:09:42.648Z,168
2017-05-27T12:10:55.151Z,228
2017-05-27T12:12:08.148Z,204
2017-05-27T12:13:20.655Z,184
2017-05-27T12:14:33.854Z,172
2017-05-27T12:15:46.856Z,168
2017-05-27T12:16:59.358Z,160
2017-05-27T12:18:11.362Z,152
2017-05-27T12:19:23.865Z,136
2017-05-27T12:20:36.871Z,128
2017-05-27T12:21:49.867Z,108
2017-05-27T12:23:02.369Z,100
2017-05-27T12:24:14.932Z,88
2017-05-27T12:25:28.131Z,84
2017-05-27T12:26:40.633Z,84
2017-05-27T12:27:53.135Z,92
2017-05-27T12:29:05.641Z,88
2017-05-27T12:30:18.144Z,80
2017-05-27T12:31:31.145Z,68
2017-05-27T12:32:43.645Z,68
2017-05-27T12:33:55.656Z,72
2017-05-27T12:35:08.664Z,76
2017-05-27T12:36:21.166Z,76
2017-05-27T12:37:34.167Z,72
2017-05-27T12:38:46.179Z,84
2017-05-27T12:39:59.174Z,88
2017-05-27T12:41:12.382Z,96
2017-05-27T12:42:24.882Z,108
2017-05-27T12:43:37.881Z,120
2017-05-27T12:44:50.880Z,124
2017-05-27T12:46:03.904Z,128
2017-05-27T12:47:16.405Z,156
2017-05-27T12:48:29.403Z,148
2017-05-27T12:49:41.908Z,140
2017-05-27T12:50:54.905Z,148
2017-05-27T12:52:06.915Z,148
2017-05-27T12:53:18.427Z,140
2017-05-27T12:54:31.425Z,140
2017-05-27T12:55:44.425Z,156
2017-05-27T12:56:55.933Z,176
2017-05-27T12:58:06.452Z,176
2017-05-27T12:59:17.467Z,200
2017-05-27T13:00:28.490Z,196
2017-05-27T13:01:40.002Z,208
2017-05-27T13:02:52.015Z,220
2017-05-27T13:04:05.015Z,220
2017-05-27T13:05:17.515Z,220
2017-05-27T13:06:30.514Z,228
2017-05-27T13:07:43.516Z,236
2017-05-27T13:08:56.513Z,248
2017-05-27T13:10:09.491Z,280
2017-05-27T13:11:21.431Z,288
2017-05-27T13:12:34.354Z,296
2017-05-27T13:13:47.273Z,324
2017-05-27T13:14:59.902Z,376
2017-05-27T13:16:12.820Z,392
2017-05-27T13:17:24.757Z,380
2017-05-27T13:18:37.679Z,368
2017-05-27T13:19:50.598Z,384
2017-05-27T13:21:03.518Z,396
2017-05-27T13:22:15.965Z,392
2017-05-27T13:23:28.888Z,388
2017-05-27T13:24:41.321Z,380
2017-05-27T13:25:54.243Z,352
2017-05-27T13:27:06.189Z,364
2017-05-27T13:28:18.815Z,368
2017-05-27T13:29:31.878Z,388
2017-05-27T13:30:43.817Z,396
2017-05-27T13:31:56.948Z,396
2017-05-27T13:33:09.955Z,404
2017-05-27T13:34:23.028Z,464
2017-05-27T13:35:35.988Z,552
2017-05-27T13:36:48.907Z,556
2017-05-27T13:38:00.846Z,576
2017-05-27T13:39:13.765Z,600
2017-05-27T13:40:25.703Z,608
2017-05-27T13:41:38.623Z,652
2017-05-27T13:42:50.560Z,660
2017-05-27T13:44:03.479Z,636
2017-05-27T13:45:15.907Z,636
2017-05-27T13:46:28.337Z,672
2017-05-27T13:47:40.276Z,748
2017-05-27T13:48:52.703Z,772
2017-05-27T13:50:04.648Z,736
2017-05-27T13:51:17.566Z,712
2017-05-27T13:52:29.996Z,696
2017-05-27T13:53:42.920Z,692
2017-05-27T13:54:55.847Z,660
2017-05-27T13:56:08.275Z,656
2017-05-27T13:57:20.713Z,636
2017-05-27T13:58:33.192Z,648
2017-05-27T13:59:46.119Z,660
2017-05-27T14:00:58.574Z,668
2017-05-27T14:02:11.016Z,684
2017-05-27T14:03:22.963Z,728
2017-05-27T14:04:35.392Z,792
2017-05-27T14:05:48.317Z,852
2017-05-27T14:07:01.238Z,960
2017-05-27T14:08:13.661Z,880
2017-05-27T14:09:25.592Z,824
2017-05-27T14:10:38.007Z,684
2017-05-27T14:11:50.931Z,664
2017-05-27T14:13:03.352Z,600
2017-05-27T14:14:15.355Z,576
2017-05-27T14:15:27.893Z,588
2017-05-27T14:16:40.505Z,704
2017-05-27T14:17:53.181Z,864
2017-05-27T14:19:06.326Z,972
2017-05-27T14:20:19.084Z,1080
2017-05-27T14:21:31.495Z,1256
2017-05-27T14:22:44.489Z,1200
2017-05-27T14:23:57.477Z,1208
2017-05-27T14:25:09.973Z,1312
2017-05-27T14:26:22.962Z,1056
2017-05-27T14:27:35.948Z,864
2017-05-27T14:28:48.935Z,764
2017-05-27T14:30:01.922Z,780
2017-05-27T14:31:15.238Z,852
2017-05-27T14:32:28.234Z,984
2017-05-27T14:33:40.242Z,1280
2017-05-27T14:34:53.235Z,1224
2017-05-27T14:36:05.782Z,1564
2017-05-27T14:37:18.272Z,1232
2017-05-27T14:38:30.772Z,1168
2017-05-27T14:39:43.266Z,1060
2017-05-27T14:40:56.254Z,1020
2017-05-27T14:42:08.742Z,948
2017-05-27T14:43:21.233Z,936
2017-05-27T14:44:34.221Z,1012
2017-05-27T14:45:46.219Z,880
2017-05-27T14:46:59.208Z,668
2017-05-27T14:48:10.909Z,656
2017-05-27T14:49:23.897Z,664
2017-05-27T14:50:36.390Z,788
2017-05-27T14:51:49.376Z,844
2017-05-27T14:53:01.781Z,964
2017-05-27T14:54:14.163Z,880
2017-05-27T14:55:26.065Z,1068
2017-05-27T14:56:38.928Z,972
2017-05-27T14:57:51.312Z,1356
2017-05-27T14:59:03.841Z,1068
2017-05-27T15:00:16.635Z,1524
2017-05-27T15:01:29.433Z,1184
2017-05-27T15:02:42.239Z,1212
2017-05-27T15:03:54.557Z,1600
2017-05-27T15:05:06.864Z,1676
2017-05-27T15:06:19.712Z,1648
2017-05-27T15:07:32.027Z,1180
2017-05-27T15:08:44.815Z,1200
2017-05-27T15:09:57.116Z,1096
2017-05-27T15:11:08.942Z,1116
2017-05-27T15:12:21.244Z,944
2017-05-27T15:13:34.033Z,1516
2017-05-27T15:14:47.019Z,992
2017-05-27T15:15:59.805Z,836
2017-05-27T15:17:11.627Z,776
2017-05-27T15:18:23.929Z,852
2017-05-27T15:19:36.258Z,784
2017-05-27T15:20:49.047Z,920
2017-05-27T15:22:01.365Z,768
2017-05-27T15:23:13.185Z,944
2017-05-27T15:24:25.493Z,780
2017-05-27T15:25:38.276Z,1128
2017-05-27T15:26:51.064Z,1196
2017-05-27T15:28:03.368Z,940
2017-05-27T15:29:15.672Z,880
2017-05-27T15:30:28.458Z,888
2017-05-27T15:31:55.326Z,996
2017-05-27T15:33:07.630Z,764
2017-05-27T15:34:19.454Z,780
2017-05-27T15:35:32.246Z,608
2017-05-27T15:36:44.548Z,588
2017-05-27T15:37:57.531Z,732
2017-05-27T15:39:09.362Z,988
2017-05-27T15:40:22.149Z,976
2017-05-27T15:41:34.453Z,780
2017-05-27T15:42:47.442Z,760
2017-05-27T15:44:00.233Z,784
2017-05-27T15:45:12.540Z,820
2017-05-27T15:46:24.365Z,872
2017-05-27T15:47:36.668Z,920
2017-05-27T15:48:48.975Z,892
2017-05-27T15:50:01.763Z,812
2017-05-27T15:51:14.078Z,820
2017-05-27T15:52:26.462Z,940
2017-05-27T15:53:38.764Z,992
2017-05-27T15:54:51.069Z,908
2017-05-27T15:56:02.891Z,952
2017-05-27T15:57:15.679Z,736
2017-05-27T15:58:28.468Z,716
2017-05-27T15:59:41.257Z,720
2017-05-27T16:00:54.046Z,748
2017-05-27T16:02:05.869Z,744
2017-05-27T16:03:18.666Z,732
2017-05-27T16:04:30.967Z,716
2017-05-27T16:05:43.472Z,704
2017-05-27T16:06:55.294Z,740
2017-05-27T16:08:08.082Z,868
2017-05-27T16:09:19.906Z,840
2017-05-27T16:10:32.891Z,856
2017-05-27T16:11:45.679Z,760
2017-05-27T16:12:58.467Z,760
2017-05-27T16:14:10.776Z,888
2017-05-27T16:15:23.095Z,896
2017-05-27T16:16:36.129Z,884
2017-05-27T16:17:48.917Z,996
2017-05-27T16:19:01.704Z,1028
2017-05-27T16:20:14.012Z,1028
2017-05-27T16:21:26.314Z,1024
2017-05-27T16:22:39.200Z,1004
2017-05-27T16:23:52.129Z,868
2017-05-27T16:25:04.564Z,908
2017-05-27T16:26:17.004Z,796
2017-05-27T16:27:29.641Z,800
2017-05-27T16:28:42.091Z,728
2017-05-27T16:29:55.017Z,652
2017-05-27T16:31:06.973Z,580
2017-05-27T16:32:17.936Z,544
2017-05-27T16:33:30.378Z,548
2017-05-27T16:34:42.335Z,528
2017-05-27T16:35:55.264Z,540
2017-05-27T16:37:08.188Z,532
2017-05-27T16:38:21.109Z,528
2017-05-27T16:39:33.541Z,524
2017-05-27T16:40:46.525Z,540
2017-05-27T16:41:59.448Z,596
2017-05-27T16:43:11.887Z,624
2017-05-27T16:44:24.325Z,616
2017-05-27T16:45:37.248Z,604
2017-05-27T16:46:50.175Z,572
2017-05-27T16:48:03.150Z,568
2017-05-27T16:49:15.967Z,564
2017-05-27T16:50:28.030Z,576
2017-05-27T16:51:41.098Z,556
2017-05-27T16:52:54.163Z,572
2017-05-27T16:54:06.730Z,572
2017-05-27T16:55:19.294Z,576
2017-05-27T16:56:32.371Z,596
2017-05-27T16:57:45.444Z,604
2017-05-27T16:58:57.512Z,612
2017-05-27T17:00:10.280Z,620
2017-05-27T17:01:23.345Z,636
2017-05-27T17:02:35.907Z,640